sensor_id;sensor_type;location;lat;lon;timestamp;temperature;humidity
66096;SHT31;53861;53.422;14.530;2023-08-07T00:00:53;13.26;96.19
66096;SHT31;53861;53.422;14.530;2023-08-07T00:03:22;13.21;96.29
66096;SHT31;53861;53.422;14.530;2023-08-07T00:05:48;13.21;96.47
66096;SHT31;53861;53.422;14.530;2023-08-07T00:08:17;13.24;96.22
66096;SHT31;53861;53.422;14.530;2023-08-07T00:10:44;13.21;96.17
66096;SHT31;53861;53.422;14.530;2023-08-07T00:13:11;13.21;96.30
66096;SHT31;53861;53.422;14.530;2023-08-07T00:15:38;13.26;96.23
66096;SHT31;53861;53.422;14.530;2023-08-07T00:18:06;13.26;96.15
66096;SHT31;53861;53.422;14.530;2023-08-07T00:20:34;13.23;96.36
66096;SHT31;53861;53.422;14.530;2023-08-07T00:23:01;13.21;96.24
66096;SHT31;53861;53.422;14.530;2023-08-07T00:25:28;13.24;96.52
66096;SHT31;53861;53.422;14.530;2023-08-07T00:27:55;13.26;96.07
66096;SHT31;53861;53.422;14.530;2023-08-07T00:30:22;13.23;96.12
66096;SHT31;53861;53.422;14.530;2023-08-07T00:32:49;13.21;96.49
66096;SHT31;53861;53.422;14.530;2023-08-07T00:35:16;13.26;96.19
66096;SHT31;53861;53.422;14.530;2023-08-07T00:37:44;13.24;96.24
66096;SHT31;53861;53.422;14.530;2023-08-07T00:40:11;13.27;96.23
66096;SHT31;53861;53.422;14.530;2023-08-07T00:42:38;13.30;95.36
66096;SHT31;53861;53.422;14.530;2023-08-07T00:45:05;13.31;95.61
66096;SHT31;53861;53.422;14.530;2023-08-07T00:47:32;13.31;95.58
66096;SHT31;53861;53.422;14.530;2023-08-07T00:49:59;13.31;95.41
66096;SHT31;53861;53.422;14.530;2023-08-07T00:52:26;13.31;95.25
66096;SHT31;53861;53.422;14.530;2023-08-07T00:54:55;13.36;95.00
66096;SHT31;53861;53.422;14.530;2023-08-07T00:57:22;13.36;95.12
66096;SHT31;53861;53.422;14.530;2023-08-07T00:59:50;13.38;95.02
66096;SHT31;53861;53.422;14.530;2023-08-07T01:02:17;13.30;95.32
66096;SHT31;53861;53.422;14.530;2023-08-07T01:04:44;13.34;95.35
66096;SHT31;53861;53.422;14.530;2023-08-07T01:07:13;13.30;95.36
66096;SHT31;53861;53.422;14.530;2023-08-07T01:09:40;13.31;95.12
66096;SHT31;53861;53.422;14.530;2023-08-07T01:12:11;13.30;95.37
66096;SHT31;53861;53.422;14.530;2023-08-07T01:14:42;13.33;95.59
66096;SHT31;53861;53.422;14.530;2023-08-07T01:17:11;13.31;94.76
66096;SHT31;53861;53.422;14.530;2023-08-07T01:19:41;13.31;95.05
66096;SHT31;53861;53.422;14.530;2023-08-07T01:22:10;13.36;94.50
66096;SHT31;53861;53.422;14.530;2023-08-07T01:24:37;13.31;94.45
66096;SHT31;53861;53.422;14.530;2023-08-07T01:27:09;13.37;94.14
66096;SHT31;53861;53.422;14.530;2023-08-07T01:29:39;13.33;94.07
66096;SHT31;53861;53.422;14.530;2023-08-07T01:32:09;13.34;93.99
66096;SHT31;53861;53.422;14.530;2023-08-07T01:34:37;13.31;94.03
66096;SHT31;53861;53.422;14.530;2023-08-07T01:37:06;13.27;94.30
66096;SHT31;53861;53.422;14.530;2023-08-07T01:39:35;13.33;94.52
66096;SHT31;53861;53.422;14.530;2023-08-07T01:42:03;13.33;93.98
66096;SHT31;53861;53.422;14.530;2023-08-07T01:44:31;13.30;93.83
66096;SHT31;53861;53.422;14.530;2023-08-07T01:46:58;13.27;93.95
66096;SHT31;53861;53.422;14.530;2023-08-07T01:49:25;13.31;93.60
66096;SHT31;53861;53.422;14.530;2023-08-07T01:51:52;13.30;94.02
66096;SHT31;53861;53.422;14.530;2023-08-07T01:54:18;13.31;93.82
66096;SHT31;53861;53.422;14.530;2023-08-07T01:56:55;13.33;93.61
66096;SHT31;53861;53.422;14.530;2023-08-07T01:59:22;13.34;94.15
66096;SHT31;53861;53.422;14.530;2023-08-07T02:01:49;13.38;93.75
66096;SHT31;53861;53.422;14.530;2023-08-07T02:04:16;13.37;93.76
66096;SHT31;53861;53.422;14.530;2023-08-07T02:06:43;13.43;93.67
66096;SHT31;53861;53.422;14.530;2023-08-07T02:09:10;13.44;93.60
66096;SHT31;53861;53.422;14.530;2023-08-07T02:11:37;13.48;93.10
66096;SHT31;53861;53.422;14.530;2023-08-07T02:14:05;13.48;92.93
66096;SHT31;53861;53.422;14.530;2023-08-07T02:16:32;13.50;93.17
66096;SHT31;53861;53.422;14.530;2023-08-07T02:18:59;13.45;93.07
66096;SHT31;53861;53.422;14.530;2023-08-07T02:21:26;13.47;93.29
66096;SHT31;53861;53.422;14.530;2023-08-07T02:23:53;13.50;93.36
66096;SHT31;53861;53.422;14.530;2023-08-07T02:26:20;13.51;93.82
66096;SHT31;53861;53.422;14.530;2023-08-07T02:28:47;13.40;94.56
66096;SHT31;53861;53.422;14.530;2023-08-07T02:31:15;13.41;94.99
66096;SHT31;53861;53.422;14.530;2023-08-07T02:33:42;13.40;95.41
66096;SHT31;53861;53.422;14.530;2023-08-07T02:36:09;13.44;94.64
66096;SHT31;53861;53.422;14.530;2023-08-07T02:38:36;13.44;95.25
66096;SHT31;53861;53.422;14.530;2023-08-07T02:41:03;13.44;95.38
66096;SHT31;53861;53.422;14.530;2023-08-07T02:43:31;13.41;95.23
66096;SHT31;53861;53.422;14.530;2023-08-07T02:46:00;13.47;95.68
66096;SHT31;53861;53.422;14.530;2023-08-07T02:48:30;13.41;95.94
66096;SHT31;53861;53.422;14.530;2023-08-07T02:50:57;13.40;95.88
66096;SHT31;53861;53.422;14.530;2023-08-07T02:53:24;13.41;96.18
66096;SHT31;53861;53.422;14.530;2023-08-07T02:55:51;13.50;95.82
66096;SHT31;53861;53.422;14.530;2023-08-07T02:58:18;13.47;96.02
66096;SHT31;53861;53.422;14.530;2023-08-07T03:00:45;13.48;95.91
66096;SHT31;53861;53.422;14.530;2023-08-07T03:03:12;13.51;96.02
66096;SHT31;53861;53.422;14.530;2023-08-07T03:05:40;13.54;95.54
66096;SHT31;53861;53.422;14.530;2023-08-07T03:08:14;13.58;95.52
66096;SHT31;53861;53.422;14.530;2023-08-07T03:10:41;13.59;95.40
66096;SHT31;53861;53.422;14.530;2023-08-07T03:13:07;13.59;95.75
66096;SHT31;53861;53.422;14.530;2023-08-07T03:15:34;13.59;95.51
66096;SHT31;53861;53.422;14.530;2023-08-07T03:18:03;13.57;95.53
66096;SHT31;53861;53.422;14.530;2023-08-07T03:20:30;13.54;95.75
66096;SHT31;53861;53.422;14.530;2023-08-07T03:22:59;13.55;95.79
66096;SHT31;53861;53.422;14.530;2023-08-07T03:25:25;13.59;95.77
66096;SHT31;53861;53.422;14.530;2023-08-07T03:27:52;13.61;95.72
66096;SHT31;53861;53.422;14.530;2023-08-07T03:30:20;13.61;95.55
66096;SHT31;53861;53.422;14.530;2023-08-07T03:32:47;13.64;95.60
66096;SHT31;53861;53.422;14.530;2023-08-07T03:35:15;13.59;95.75
66096;SHT31;53861;53.422;14.530;2023-08-07T03:37:42;13.57;95.86
66096;SHT31;53861;53.422;14.530;2023-08-07T03:40:11;13.51;96.12
66096;SHT31;53861;53.422;14.530;2023-08-07T03:42:38;13.54;96.18
66096;SHT31;53861;53.422;14.530;2023-08-07T03:45:05;13.44;96.44
66096;SHT31;53861;53.422;14.530;2023-08-07T03:47:32;13.53;96.44
66096;SHT31;53861;53.422;14.530;2023-08-07T03:49:59;13.50;96.59
66096;SHT31;53861;53.422;14.530;2023-08-07T03:52:26;13.43;96.46
66096;SHT31;53861;53.422;14.530;2023-08-07T03:54:53;13.47;96.60
66096;SHT31;53861;53.422;14.530;2023-08-07T03:57:27;13.47;96.64
66096;SHT31;53861;53.422;14.530;2023-08-07T03:59:54;13.47;96.56
66096;SHT31;53861;53.422;14.530;2023-08-07T04:02:22;13.53;96.04
66096;SHT31;53861;53.422;14.530;2023-08-07T04:04:49;13.48;95.98
66096;SHT31;53861;53.422;14.530;2023-08-07T04:07:16;13.53;95.74
66096;SHT31;53861;53.422;14.530;2023-08-07T04:09:43;13.61;94.61
66096;SHT31;53861;53.422;14.530;2023-08-07T04:12:10;13.64;94.79
66096;SHT31;53861;53.422;14.530;2023-08-07T04:14:38;13.62;94.49
66096;SHT31;53861;53.422;14.530;2023-08-07T04:17:05;13.64;94.83
66096;SHT31;53861;53.422;14.530;2023-08-07T04:19:32;13.65;94.86
66096;SHT31;53861;53.422;14.530;2023-08-07T04:21:59;13.64;94.80
66096;SHT31;53861;53.422;14.530;2023-08-07T04:24:26;13.75;94.50
66096;SHT31;53861;53.422;14.530;2023-08-07T04:26:53;13.75;94.39
66096;SHT31;53861;53.422;14.530;2023-08-07T04:29:20;13.82;94.36
66096;SHT31;53861;53.422;14.530;2023-08-07T04:31:48;13.75;94.09
66096;SHT31;53861;53.422;14.530;2023-08-07T04:34:15;13.78;93.89
66096;SHT31;53861;53.422;14.530;2023-08-07T04:36:42;13.81;94.38
66096;SHT31;53861;53.422;14.530;2023-08-07T04:39:09;13.78;94.50
66096;SHT31;53861;53.422;14.530;2023-08-07T04:41:37;13.79;94.30
66096;SHT31;53861;53.422;14.530;2023-08-07T04:44:04;13.79;94.50
66096;SHT31;53861;53.422;14.530;2023-08-07T04:46:31;13.82;94.56
66096;SHT31;53861;53.422;14.530;2023-08-07T04:49:00;13.86;94.91
66096;SHT31;53861;53.422;14.530;2023-08-07T04:51:27;13.81;94.73
66096;SHT31;53861;53.422;14.530;2023-08-07T04:53:56;13.83;94.91
66096;SHT31;53861;53.422;14.530;2023-08-07T04:56:23;13.89;94.71
66096;SHT31;53861;53.422;14.530;2023-08-07T04:58:50;13.95;94.67
66096;SHT31;53861;53.422;14.530;2023-08-07T05:01:17;13.97;93.60
66096;SHT31;53861;53.422;14.530;2023-08-07T05:03:44;14.02;93.18
66096;SHT31;53861;53.422;14.530;2023-08-07T05:06:13;14.09;92.39
66096;SHT31;53861;53.422;14.530;2023-08-07T05:08:39;14.20;92.07
66096;SHT31;53861;53.422;14.530;2023-08-07T05:11:06;14.13;91.26
66096;SHT31;53861;53.422;14.530;2023-08-07T05:13:33;14.20;90.71
66096;SHT31;53861;53.422;14.530;2023-08-07T05:16:00;14.25;90.95
66096;SHT31;53861;53.422;14.530;2023-08-07T05:18:27;14.32;90.62
66096;SHT31;53861;53.422;14.530;2023-08-07T05:20:54;14.37;90.93
66096;SHT31;53861;53.422;14.530;2023-08-07T05:23:23;14.36;90.03
66096;SHT31;53861;53.422;14.530;2023-08-07T05:25:50;14.32;88.57
66096;SHT31;53861;53.422;14.530;2023-08-07T05:28:17;14.41;89.78
66096;SHT31;53861;53.422;14.530;2023-08-07T05:30:44;14.39;89.78
66096;SHT31;53861;53.422;14.530;2023-08-07T05:33:11;14.43;89.87
66096;SHT31;53861;53.422;14.530;2023-08-07T05:35:40;14.43;89.34
66096;SHT31;53861;53.422;14.530;2023-08-07T05:38:07;14.37;90.74
66096;SHT31;53861;53.422;14.530;2023-08-07T05:40:42;14.33;90.41
66096;SHT31;53861;53.422;14.530;2023-08-07T05:43:09;14.29;89.71
66096;SHT31;53861;53.422;14.530;2023-08-07T05:45:36;14.22;91.15
66096;SHT31;53861;53.422;14.530;2023-08-07T05:48:03;14.12;92.11
66096;SHT31;53861;53.422;14.530;2023-08-07T05:50:30;14.20;92.13
66096;SHT31;53861;53.422;14.530;2023-08-07T05:52:57;14.23;91.17
66096;SHT31;53861;53.422;14.530;2023-08-07T05:55:24;14.22;92.30
66096;SHT31;53861;53.422;14.530;2023-08-07T05:57:53;14.29;91.30
66096;SHT31;53861;53.422;14.530;2023-08-07T06:00:20;14.32;91.25
66096;SHT31;53861;53.422;14.530;2023-08-07T06:02:47;14.33;91.02
66096;SHT31;53861;53.422;14.530;2023-08-07T06:05:14;14.32;90.72
66096;SHT31;53861;53.422;14.530;2023-08-07T06:07:42;14.47;90.55
66096;SHT31;53861;53.422;14.530;2023-08-07T06:10:09;14.50;91.22
66096;SHT31;53861;53.422;14.530;2023-08-07T06:12:36;14.51;91.60
66096;SHT31;53861;53.422;14.530;2023-08-07T06:15:05;14.51;91.34
66096;SHT31;53861;53.422;14.530;2023-08-07T06:17:32;14.50;91.09
66096;SHT31;53861;53.422;14.530;2023-08-07T06:19:59;14.56;91.52
66096;SHT31;53861;53.422;14.530;2023-08-07T06:22:26;14.59;92.06
66096;SHT31;53861;53.422;14.530;2023-08-07T06:24:52;14.64;91.68
66096;SHT31;53861;53.422;14.530;2023-08-07T06:27:20;14.59;92.36
66096;SHT31;53861;53.422;14.530;2023-08-07T06:29:47;14.76;91.62
66096;SHT31;53861;53.422;14.530;2023-08-07T06:32:16;14.80;92.30
66096;SHT31;53861;53.422;14.530;2023-08-07T06:34:43;14.79;91.79
66096;SHT31;53861;53.422;14.530;2023-08-07T06:37:12;14.90;91.84
66096;SHT31;53861;53.422;14.530;2023-08-07T06:39:39;14.92;92.30
66096;SHT31;53861;53.422;14.530;2023-08-07T06:42:06;14.85;91.91
66096;SHT31;53861;53.422;14.530;2023-08-07T06:44:33;14.94;92.71
66096;SHT31;53861;53.422;14.530;2023-08-07T06:46:59;15.01;92.29
66096;SHT31;53861;53.422;14.530;2023-08-07T06:49:28;14.98;92.64
66096;SHT31;53861;53.422;14.530;2023-08-07T06:51:57;15.02;93.66
66096;SHT31;53861;53.422;14.530;2023-08-07T06:54:24;14.97;94.52
66096;SHT31;53861;53.422;14.530;2023-08-07T06:56:51;15.07;94.18
66096;SHT31;53861;53.422;14.530;2023-08-07T06:59:18;15.15;94.57
66096;SHT31;53861;53.422;14.530;2023-08-07T07:01:45;15.21;94.94
66096;SHT31;53861;53.422;14.530;2023-08-07T07:04:12;15.18;93.91
66096;SHT31;53861;53.422;14.530;2023-08-07T07:06:40;15.07;94.03
66096;SHT31;53861;53.422;14.530;2023-08-07T07:09:07;15.05;94.28
66096;SHT31;53861;53.422;14.530;2023-08-07T07:11:34;15.07;94.23
66096;SHT31;53861;53.422;14.530;2023-08-07T07:14:01;14.98;95.03
66096;SHT31;53861;53.422;14.530;2023-08-07T07:16:28;14.97;94.68
66096;SHT31;53861;53.422;14.530;2023-08-07T07:18:55;15.05;94.99
66096;SHT31;53861;53.422;14.530;2023-08-07T07:21:23;15.11;94.21
66096;SHT31;53861;53.422;14.530;2023-08-07T07:23:52;15.22;94.21
66096;SHT31;53861;53.422;14.530;2023-08-07T07:26:19;15.30;93.91
66096;SHT31;53861;53.422;14.530;2023-08-07T07:28:46;15.45;93.18
66096;SHT31;53861;53.422;14.530;2023-08-07T07:31:13;15.49;92.48
66096;SHT31;53861;53.422;14.530;2023-08-07T07:33:41;15.56;93.17
66096;SHT31;53861;53.422;14.530;2023-08-07T07:36:13;15.53;92.33
66096;SHT31;53861;53.422;14.530;2023-08-07T07:38:40;15.72;92.22
66096;SHT31;53861;53.422;14.530;2023-08-07T07:41:08;15.83;92.10
66096;SHT31;53861;53.422;14.530;2023-08-07T07:43:36;15.89;92.22
66096;SHT31;53861;53.422;14.530;2023-08-07T07:46:03;15.81;90.95
66096;SHT31;53861;53.422;14.530;2023-08-07T07:48:30;15.73;91.25
66096;SHT31;53861;53.422;14.530;2023-08-07T07:50:58;15.82;91.50
66096;SHT31;53861;53.422;14.530;2023-08-07T07:53:25;15.75;91.91
66096;SHT31;53861;53.422;14.530;2023-08-07T07:55:52;15.56;91.63
66096;SHT31;53861;53.422;14.530;2023-08-07T07:58:20;15.51;92.24
66096;SHT31;53861;53.422;14.530;2023-08-07T08:00:47;15.35;92.37
66096;SHT31;53861;53.422;14.530;2023-08-07T08:03:14;15.39;91.87
66096;SHT31;53861;53.422;14.530;2023-08-07T08:05:42;15.42;92.58
66096;SHT31;53861;53.422;14.530;2023-08-07T08:08:09;15.51;92.82
66096;SHT31;53861;53.422;14.530;2023-08-07T08:10:37;15.53;92.64
66096;SHT31;53861;53.422;14.530;2023-08-07T08:13:04;15.31;92.28
66096;SHT31;53861;53.422;14.530;2023-08-07T08:15:32;15.38;92.21
66096;SHT31;53861;53.422;14.530;2023-08-07T08:17:59;15.38;92.44
66096;SHT31;53861;53.422;14.530;2023-08-07T08:20:26;15.36;92.54
66096;SHT31;53861;53.422;14.530;2023-08-07T08:22:55;15.45;92.02
66096;SHT31;53861;53.422;14.530;2023-08-07T08:25:22;15.34;91.78
66096;SHT31;53861;53.422;14.530;2023-08-07T08:27:49;15.34;92.42
66096;SHT31;53861;53.422;14.530;2023-08-07T08:30:16;15.14;92.89
66096;SHT31;53861;53.422;14.530;2023-08-07T08:32:45;15.42;93.32
66096;SHT31;53861;53.422;14.530;2023-08-07T08:35:12;15.46;92.48
66096;SHT31;53861;53.422;14.530;2023-08-07T08:37:39;15.53;93.60
66096;SHT31;53861;53.422;14.530;2023-08-07T08:40:06;15.59;91.81
66096;SHT31;53861;53.422;14.530;2023-08-07T08:42:33;15.56;92.19
66096;SHT31;53861;53.422;14.530;2023-08-07T08:45:00;15.69;92.20
66096;SHT31;53861;53.422;14.530;2023-08-07T08:47:28;15.75;92.06
66096;SHT31;53861;53.422;14.530;2023-08-07T08:50:01;15.70;91.67
66096;SHT31;53861;53.422;14.530;2023-08-07T08:52:28;15.83;91.13
66096;SHT31;53861;53.422;14.530;2023-08-07T08:54:57;15.92;91.46
66096;SHT31;53861;53.422;14.530;2023-08-07T08:57:24;16.03;90.17
66096;SHT31;53861;53.422;14.530;2023-08-07T08:59:51;16.12;90.23
66096;SHT31;53861;53.422;14.530;2023-08-07T09:02:19;16.14;89.24
66096;SHT31;53861;53.422;14.530;2023-08-07T09:04:46;16.33;90.20
66096;SHT31;53861;53.422;14.530;2023-08-07T09:07:14;16.50;89.31
66096;SHT31;53861;53.422;14.530;2023-08-07T09:09:42;16.47;89.62
66096;SHT31;53861;53.422;14.530;2023-08-07T09:12:18;16.60;88.04
66096;SHT31;53861;53.422;14.530;2023-08-07T09:14:47;16.65;88.44
66096;SHT31;53861;53.422;14.530;2023-08-07T09:17:16;16.82;87.54
66096;SHT31;53861;53.422;14.530;2023-08-07T09:19:43;16.57;88.21
66096;SHT31;53861;53.422;14.530;2023-08-07T09:22:11;16.53;87.92
66096;SHT31;53861;53.422;14.530;2023-08-07T09:24:39;16.68;88.60
66096;SHT31;53861;53.422;14.530;2023-08-07T09:27:06;16.68;89.01
66096;SHT31;53861;53.422;14.530;2023-08-07T09:29:33;16.72;87.55
66096;SHT31;53861;53.422;14.530;2023-08-07T09:32:06;17.08;87.57
66096;SHT31;53861;53.422;14.530;2023-08-07T09:34:33;17.32;86.02
66096;SHT31;53861;53.422;14.530;2023-08-07T09:37:00;17.43;86.34
66096;SHT31;53861;53.422;14.530;2023-08-07T09:39:29;17.73;84.39
66096;SHT31;53861;53.422;14.530;2023-08-07T09:41:58;17.81;85.12
66096;SHT31;53861;53.422;14.530;2023-08-07T09:44:25;17.81;84.12
66096;SHT31;53861;53.422;14.530;2023-08-07T09:46:51;17.63;85.38
66096;SHT31;53861;53.422;14.530;2023-08-07T09:49:18;17.73;85.47
66096;SHT31;53861;53.422;14.530;2023-08-07T09:51:46;17.67;85.08
66096;SHT31;53861;53.422;14.530;2023-08-07T09:54:16;17.59;85.38
66096;SHT31;53861;53.422;14.530;2023-08-07T09:56:43;17.67;85.78
66096;SHT31;53861;53.422;14.530;2023-08-07T09:59:13;17.67;87.22
66096;SHT31;53861;53.422;14.530;2023-08-07T10:01:40;17.57;85.48
66096;SHT31;53861;53.422;14.530;2023-08-07T10:04:09;17.60;86.18
66096;SHT31;53861;53.422;14.530;2023-08-07T10:06:41;17.47;87.18
66096;SHT31;53861;53.422;14.530;2023-08-07T10:09:08;17.47;85.80
66096;SHT31;53861;53.422;14.530;2023-08-07T10:11:35;17.53;85.66
66096;SHT31;53861;53.422;14.530;2023-08-07T10:14:03;17.57;85.02
66096;SHT31;53861;53.422;14.530;2023-08-07T10:16:31;17.60;84.66
66096;SHT31;53861;53.422;14.530;2023-08-07T10:19:03;17.60;85.68
66096;SHT31;53861;53.422;14.530;2023-08-07T10:21:30;17.42;85.41
66096;SHT31;53861;53.422;14.530;2023-08-07T10:23:57;17.53;85.68
66096;SHT31;53861;53.422;14.530;2023-08-07T10:26:27;17.70;86.32
66096;SHT31;53861;53.422;14.530;2023-08-07T10:28:54;17.69;84.61
66096;SHT31;53861;53.422;14.530;2023-08-07T10:31:21;17.51;84.63
66096;SHT31;53861;53.422;14.530;2023-08-07T10:33:50;17.42;85.06
66096;SHT31;53861;53.422;14.530;2023-08-07T10:36:17;17.40;85.50
66096;SHT31;53861;53.422;14.530;2023-08-07T10:38:45;17.28;85.20
66096;SHT31;53861;53.422;14.530;2023-08-07T10:41:15;17.47;85.51
66096;SHT31;53861;53.422;14.530;2023-08-07T10:43:45;17.40;85.52
66096;SHT31;53861;53.422;14.530;2023-08-07T10:46:14;17.56;84.53
66096;SHT31;53861;53.422;14.530;2023-08-07T10:48:42;17.69;84.56
66096;SHT31;53861;53.422;14.530;2023-08-07T10:51:13;17.87;83.13
66096;SHT31;53861;53.422;14.530;2023-08-07T10:53:41;17.91;83.71
66096;SHT31;53861;53.422;14.530;2023-08-07T10:56:10;18.04;84.81
66096;SHT31;53861;53.422;14.530;2023-08-07T10:58:37;18.12;83.35
66096;SHT31;53861;53.422;14.530;2023-08-07T11:01:20;18.42;82.89
66096;SHT31;53861;53.422;14.530;2023-08-07T11:03:48;18.34;81.62
66096;SHT31;53861;53.422;14.530;2023-08-07T11:06:17;18.55;81.42
66096;SHT31;53861;53.422;14.530;2023-08-07T11:08:44;18.52;81.05
66096;SHT31;53861;53.422;14.530;2023-08-07T11:11:11;18.48;80.35
66096;SHT31;53861;53.422;14.530;2023-08-07T11:13:38;18.28;81.04
66096;SHT31;53861;53.422;14.530;2023-08-07T11:16:05;18.35;79.77
66096;SHT31;53861;53.422;14.530;2023-08-07T11:18:33;18.37;80.23
66096;SHT31;53861;53.422;14.530;2023-08-07T11:21:01;18.08;79.92
66096;SHT31;53861;53.422;14.530;2023-08-07T11:23:29;18.25;80.01
66096;SHT31;53861;53.422;14.530;2023-08-07T11:25:56;18.30;81.21
66096;SHT31;53861;53.422;14.530;2023-08-07T11:28:24;18.07;80.25
66096;SHT31;53861;53.422;14.530;2023-08-07T11:30:51;18.00;80.65
66096;SHT31;53861;53.422;14.530;2023-08-07T11:33:19;18.17;80.57
66096;SHT31;53861;53.422;14.530;2023-08-07T11:35:46;18.04;80.41
66096;SHT31;53861;53.422;14.530;2023-08-07T11:38:15;18.28;80.94
66096;SHT31;53861;53.422;14.530;2023-08-07T11:40:44;18.28;80.07
66096;SHT31;53861;53.422;14.530;2023-08-07T11:43:11;18.15;80.02
66096;SHT31;53861;53.422;14.530;2023-08-07T11:45:38;18.18;79.83
66096;SHT31;53861;53.422;14.530;2023-08-07T11:48:05;18.05;80.56
66096;SHT31;53861;53.422;14.530;2023-08-07T11:50:32;18.14;81.21
66096;SHT31;53861;53.422;14.530;2023-08-07T11:52:59;18.12;80.10
66096;SHT31;53861;53.422;14.530;2023-08-07T11:55:28;18.17;79.37
66096;SHT31;53861;53.422;14.530;2023-08-07T11:57:56;18.12;79.36
66096;SHT31;53861;53.422;14.530;2023-08-07T12:00:24;18.00;79.07
66096;SHT31;53861;53.422;14.530;2023-08-07T12:02:53;18.20;79.69
66096;SHT31;53861;53.422;14.530;2023-08-07T12:05:20;18.11;78.90
66096;SHT31;53861;53.422;14.530;2023-08-07T12:07:49;18.17;78.93
66096;SHT31;53861;53.422;14.530;2023-08-07T12:10:16;18.05;78.21
66096;SHT31;53861;53.422;14.530;2023-08-07T12:12:44;18.20;78.04
66096;SHT31;53861;53.422;14.530;2023-08-07T12:15:12;18.40;77.24
66096;SHT31;53861;53.422;14.530;2023-08-07T12:17:39;18.54;76.78
66096;SHT31;53861;53.422;14.530;2023-08-07T12:20:07;18.58;75.93
66096;SHT31;53861;53.422;14.530;2023-08-07T12:22:36;18.65;76.35
66096;SHT31;53861;53.422;14.530;2023-08-07T12:25:03;18.86;74.77
66096;SHT31;53861;53.422;14.530;2023-08-07T12:27:30;18.96;74.04
66096;SHT31;53861;53.422;14.530;2023-08-07T12:29:58;19.05;73.41
66096;SHT31;53861;53.422;14.530;2023-08-07T12:32:27;19.19;73.60
66096;SHT31;53861;53.422;14.530;2023-08-07T12:34:54;19.47;73.97
66096;SHT31;53861;53.422;14.530;2023-08-07T12:37:21;19.71;71.84
66096;SHT31;53861;53.422;14.530;2023-08-07T12:39:48;19.92;71.81
66096;SHT31;53861;53.422;14.530;2023-08-07T12:42:15;19.66;71.67
66096;SHT31;53861;53.422;14.530;2023-08-07T12:44:43;19.73;72.94
66096;SHT31;53861;53.422;14.530;2023-08-07T12:47:10;19.85;72.03
66096;SHT31;53861;53.422;14.530;2023-08-07T12:49:38;20.05;69.88
66096;SHT31;53861;53.422;14.530;2023-08-07T12:52:05;20.57;70.32
66096;SHT31;53861;53.422;14.530;2023-08-07T12:54:32;20.53;68.37
66096;SHT31;53861;53.422;14.530;2023-08-07T12:56:59;20.83;68.93
66096;SHT31;53861;53.422;14.530;2023-08-07T12:59:26;21.00;67.81
66096;SHT31;53861;53.422;14.530;2023-08-07T13:01:54;20.79;66.34
66096;SHT31;53861;53.422;14.530;2023-08-07T13:04:21;20.66;67.01
66096;SHT31;53861;53.422;14.530;2023-08-07T13:06:50;20.53;67.41
66096;SHT31;53861;53.422;14.530;2023-08-07T13:09:17;19.99;68.77
66096;SHT31;53861;53.422;14.530;2023-08-07T13:11:44;19.82;69.53
66096;SHT31;53861;53.422;14.530;2023-08-07T13:14:11;19.75;68.00
66096;SHT31;53861;53.422;14.530;2023-08-07T13:16:38;19.50;67.39
66096;SHT31;53861;53.422;14.530;2023-08-07T13:19:05;19.51;68.57
66096;SHT31;53861;53.422;14.530;2023-08-07T13:21:32;19.44;68.00
66096;SHT31;53861;53.422;14.530;2023-08-07T13:24:01;19.63;67.51
66096;SHT31;53861;53.422;14.530;2023-08-07T13:26:28;19.70;67.21
66096;SHT31;53861;53.422;14.530;2023-08-07T13:28:55;19.70;67.34
66096;SHT31;53861;53.422;14.530;2023-08-07T13:31:23;19.73;67.33
66096;SHT31;53861;53.422;14.530;2023-08-07T13:33:51;19.77;67.07
66096;SHT31;53861;53.422;14.530;2023-08-07T13:36:18;19.87;67.11
66096;SHT31;53861;53.422;14.530;2023-08-07T13:38:45;19.95;65.66
66096;SHT31;53861;53.422;14.530;2023-08-07T13:41:13;20.30;65.60
66096;SHT31;53861;53.422;14.530;2023-08-07T13:43:40;20.40;64.42
66096;SHT31;53861;53.422;14.530;2023-08-07T13:46:08;20.26;65.14
66096;SHT31;53861;53.422;14.530;2023-08-07T13:48:36;20.22;65.59
66096;SHT31;53861;53.422;14.530;2023-08-07T13:51:03;20.21;66.62
66096;SHT31;53861;53.422;14.530;2023-08-07T13:53:32;20.32;66.43
66096;SHT31;53861;53.422;14.530;2023-08-07T13:56:00;20.25;66.00
66096;SHT31;53861;53.422;14.530;2023-08-07T13:58:29;20.15;65.29
66096;SHT31;53861;53.422;14.530;2023-08-07T14:00:56;19.85;65.22
66096;SHT31;53861;53.422;14.530;2023-08-07T14:03:24;19.77;65.52
66096;SHT31;53861;53.422;14.530;2023-08-07T14:05:51;20.48;65.17
66096;SHT31;53861;53.422;14.530;2023-08-07T14:08:19;20.60;63.94
66096;SHT31;53861;53.422;14.530;2023-08-07T14:10:49;20.65;66.93
66096;SHT31;53861;53.422;14.530;2023-08-07T14:13:16;20.55;64.22
66096;SHT31;53861;53.422;14.530;2023-08-07T14:15:45;20.17;64.85
66096;SHT31;53861;53.422;14.530;2023-08-07T14:18:12;19.84;65.97
66096;SHT31;53861;53.422;14.530;2023-08-07T14:20:41;19.51;67.27
66096;SHT31;53861;53.422;14.530;2023-08-07T14:23:08;19.57;66.29
66096;SHT31;53861;53.422;14.530;2023-08-07T14:25:35;19.41;67.14
66096;SHT31;53861;53.422;14.530;2023-08-07T14:28:03;19.22;67.03
66096;SHT31;53861;53.422;14.530;2023-08-07T14:30:34;19.09;68.04
66096;SHT31;53861;53.422;14.530;2023-08-07T14:33:03;19.05;67.69
66096;SHT31;53861;53.422;14.530;2023-08-07T14:35:30;19.15;68.41
66096;SHT31;53861;53.422;14.530;2023-08-07T14:37:57;19.23;68.35
66096;SHT31;53861;53.422;14.530;2023-08-07T14:40:24;19.31;67.88
66096;SHT31;53861;53.422;14.530;2023-08-07T14:42:51;19.41;68.01
66096;SHT31;53861;53.422;14.530;2023-08-07T14:45:18;19.78;67.00
66096;SHT31;53861;53.422;14.530;2023-08-07T14:47:46;19.79;67.41
66096;SHT31;53861;53.422;14.530;2023-08-07T14:50:14;19.92;68.04
66096;SHT31;53861;53.422;14.530;2023-08-07T14:52:42;19.98;69.03
66096;SHT31;53861;53.422;14.530;2023-08-07T14:55:09;20.04;68.16
66096;SHT31;53861;53.422;14.530;2023-08-07T14:57:36;19.77;66.72
66096;SHT31;53861;53.422;14.530;2023-08-07T15:00:03;19.84;69.37
66096;SHT31;53861;53.422;14.530;2023-08-07T15:02:31;19.46;68.68
66096;SHT31;53861;53.422;14.530;2023-08-07T15:04:58;19.58;67.40
66096;SHT31;53861;53.422;14.530;2023-08-07T15:07:27;19.81;67.21
66096;SHT31;53861;53.422;14.530;2023-08-07T15:09:54;19.87;65.62
66096;SHT31;53861;53.422;14.530;2023-08-07T15:12:21;19.89;65.85
66096;SHT31;53861;53.422;14.530;2023-08-07T15:14:48;19.77;65.98
66096;SHT31;53861;53.422;14.530;2023-08-07T15:17:15;19.87;65.69